sensor_id;sensor_type;location;lat;lon;timestamp;P1;durP1;ratioP1;P2;durP2;ratioP2
71800;SDS011;59647;55.838;37.292;2024-01-30T00:02:17;8.77;;;4.30;;
71800;SDS011;59647;55.838;37.292;2024-01-30T00:04:43;8.77;;;3.97;;
71800;SDS011;59647;55.838;37.292;2024-01-30T00:07:08;9.93;;;4.77;;
71800;SDS011;59647;55.838;37.292;2024-01-30T00:09:34;9.93;;;4.90;;
71800;SDS011;59647;55.838;37.292;2024-01-30T00:12:00;10.77;;;5.23;;
71800;SDS011;59647;55.838;37.292;2024-01-30T00:14:26;9.53;;;4.23;;
71800;SDS011;59647;55.838;37.292;2024-01-30T00:16:51;8.13;;;4.10;;
71800;SDS011;59647;55.838;37.292;2024-01-30T00:19:17;14.67;;;4.20;;
71800;SDS011;59647;55.838;37.292;2024-01-30T00:21:43;8.23;;;4.20;;
71800;SDS011;59647;55.838;37.292;2024-01-30T00:24:09;12.23;;;5.10;;
71800;SDS011;59647;55.838;37.292;2024-01-30T00:26:35;9.73;;;4.47;;
71800;SDS011;59647;55.838;37.292;2024-01-30T00:29:00;10.87;;;5.03;;
71800;SDS011;59647;55.838;37.292;2024-01-30T00:31:26;8.60;;;3.97;;
71800;SDS011;59647;55.838;37.292;2024-01-30T00:33:52;7.57;;;3.77;;
71800;SDS011;59647;55.838;37.292;2024-01-30T00:36:17;9.30;;;4.30;;
71800;SDS011;59647;55.838;37.292;2024-01-30T00:38:43;10.20;;;4.57;;
71800;SDS011;59647;55.838;37.292;2024-01-30T00:41:09;9.67;;;4.50;;
71800;SDS011;59647;55.838;37.292;2024-01-30T00:43:35;10.53;;;4.67;;
71800;SDS011;59647;55.838;37.292;2024-01-30T00:46:01;6.93;;;3.90;;
71800;SDS011;59647;55.838;37.292;2024-01-30T00:48:26;8.87;;;4.13;;
71800;SDS011;59647;55.838;37.292;2024-01-30T00:50:52;10.47;;;4.80;;
71800;SDS011;59647;55.838;37.292;2024-01-30T00:53:18;11.17;;;4.73;;
71800;SDS011;59647;55.838;37.292;2024-01-30T00:55:44;9.93;;;4.43;;
71800;SDS011;59647;55.838;37.292;2024-01-30T00:58:09;7.53;;;4.27;;
71800;SDS011;59647;55.838;37.292;2024-01-30T01:00:35;10.00;;;4.73;;
71800;SDS011;59647;55.838;37.292;2024-01-30T01:03:01;11.10;;;4.70;;
71800;SDS011;59647;55.838;37.292;2024-01-30T01:05:27;9.03;;;4.07;;
71800;SDS011;59647;55.838;37.292;2024-01-30T01:07:53;9.83;;;4.60;;
71800;SDS011;59647;55.838;37.292;2024-01-30T01:10:18;10.20;;;4.87;;
71800;SDS011;59647;55.838;37.292;2024-01-30T01:12:44;10.87;;;5.17;;
71800;SDS011;59647;55.838;37.292;2024-01-30T01:15:10;9.70;;;5.30;;
71800;SDS011;59647;55.838;37.292;2024-01-30T01:17:36;9.73;;;4.53;;
71800;SDS011;59647;55.838;37.292;2024-01-30T01:20:02;10.37;;;4.70;;
71800;SDS011;59647;55.838;37.292;2024-01-30T01:22:29;9.77;;;5.37;;
71800;SDS011;59647;55.838;37.292;2024-01-30T01:24:55;9.30;;;4.80;;
71800;SDS011;59647;55.838;37.292;2024-01-30T01:27:21;11.73;;;5.10;;
71800;SDS011;59647;55.838;37.292;2024-01-30T01:29:46;10.40;;;4.53;;
71800;SDS011;59647;55.838;37.292;2024-01-30T01:32:12;12.00;;;5.67;;
71800;SDS011;59647;55.838;37.292;2024-01-30T01:34:38;11.53;;;5.33;;
71800;SDS011;59647;55.838;37.292;2024-01-30T01:37:04;8.63;;;4.70;;
71800;SDS011;59647;55.838;37.292;2024-01-30T01:39:29;9.53;;;5.47;;
71800;SDS011;59647;55.838;37.292;2024-01-30T01:41:55;11.73;;;5.20;;
71800;SDS011;59647;55.838;37.292;2024-01-30T01:44:21;9.90;;;5.17;;
71800;SDS011;59647;55.838;37.292;2024-01-30T01:46:46;9.27;;;4.53;;
71800;SDS011;59647;55.838;37.292;2024-01-30T01:49:13;9.27;;;4.67;;
71800;SDS011;59647;55.838;37.292;2024-01-30T01:51:39;11.03;;;5.00;;
71800;SDS011;59647;55.838;37.292;2024-01-30T01:54:06;10.23;;;5.40;;
71800;SDS011;59647;55.838;37.292;2024-01-30T01:56:32;7.57;;;4.10;;
71800;SDS011;59647;55.838;37.292;2024-01-30T01:59:05;10.30;;;4.60;;
71800;SDS011;59647;55.838;37.292;2024-01-30T02:01:33;9.38;;;5.00;;
71800;SDS011;59647;55.838;37.292;2024-01-30T02:03:59;8.77;;;5.27;;
71800;SDS011;59647;55.838;37.292;2024-01-30T02:06:25;9.30;;;4.77;;
71800;SDS011;59647;55.838;37.292;2024-01-30T02:08:51;8.90;;;4.87;;
71800;SDS011;59647;55.838;37.292;2024-01-30T02:11:16;10.67;;;4.63;;
71800;SDS011;59647;55.838;37.292;2024-01-30T02:13:42;9.33;;;4.90;;
71800;SDS011;59647;55.838;37.292;2024-01-30T02:16:08;10.10;;;5.47;;
71800;SDS011;59647;55.838;37.292;2024-01-30T02:18:34;12.53;;;5.50;;
71800;SDS011;59647;55.838;37.292;2024-01-30T02:21:16;9.73;;;5.40;;
71800;SDS011;59647;55.838;37.292;2024-01-30T02:23:46;12.33;;;5.03;;
71800;SDS011;59647;55.838;37.292;2024-01-30T02:26:13;13.00;;;4.63;;
71800;SDS011;59647;55.838;37.292;2024-01-30T02:28:39;8.10;;;4.10;;
71800;SDS011;59647;55.838;37.292;2024-01-30T02:31:05;10.50;;;4.47;;
71800;SDS011;59647;55.838;37.292;2024-01-30T02:33:30;11.47;;;5.30;;
71800;SDS011;59647;55.838;37.292;2024-01-30T02:35:56;9.63;;;4.80;;
71800;SDS011;59647;55.838;37.292;2024-01-30T02:38:22;8.33;;;4.53;;
71800;SDS011;59647;55.838;37.292;2024-01-30T02:40:49;9.73;;;4.60;;
71800;SDS011;59647;55.838;37.292;2024-01-30T02:43:15;9.07;;;4.73;;
71800;SDS011;59647;55.838;37.292;2024-01-30T02:45:41;9.57;;;4.67;;
71800;SDS011;59647;55.838;37.292;2024-01-30T02:48:07;10.10;;;4.83;;
71800;SDS011;59647;55.838;37.292;2024-01-30T02:50:33;9.00;;;4.60;;
71800;SDS011;59647;55.838;37.292;2024-01-30T02:52:59;10.63;;;5.23;;
71800;SDS011;59647;55.838;37.292;2024-01-30T02:55:24;10.53;;;5.50;;
71800;SDS011;59647;55.838;37.292;2024-01-30T02:57:50;8.73;;;4.90;;
71800;SDS011;59647;55.838;37.292;2024-01-30T03:00:16;10.23;;;4.73;;
71800;SDS011;59647;55.838;37.292;2024-01-30T03:02:41;9.33;;;4.70;;
71800;SDS011;59647;55.838;37.292;2024-01-30T03:05:07;10.30;;;6.00;;
71800;SDS011;59647;55.838;37.292;2024-01-30T03:07:33;8.40;;;4.93;;
71800;SDS011;59647;55.838;37.292;2024-01-30T03:09:59;13.37;;;4.60;;
71800;SDS011;59647;55.838;37.292;2024-01-30T03:12:24;9.33;;;4.90;;
71800;SDS011;59647;55.838;37.292;2024-01-30T03:14:50;12.50;;;6.17;;
71800;SDS011;59647;55.838;37.292;2024-01-30T03:17:16;8.73;;;4.57;;
71800;SDS011;59647;55.838;37.292;2024-01-30T03:19:42;11.17;;;5.10;;
71800;SDS011;59647;55.838;37.292;2024-01-30T03:22:07;11.07;;;5.33;;
71800;SDS011;59647;55.838;37.292;2024-01-30T03:24:33;9.17;;;4.90;;
71800;SDS011;59647;55.838;37.292;2024-01-30T03:26:59;10.70;;;5.20;;
71800;SDS011;59647;55.838;37.292;2024-01-30T03:29:24;10.10;;;5.50;;
71800;SDS011;59647;55.838;37.292;2024-01-30T03:31:50;12.63;;;5.67;;
71800;SDS011;59647;55.838;37.292;2024-01-30T03:34:16;11.10;;;5.03;;
71800;SDS011;59647;55.838;37.292;2024-01-30T03:36:41;13.43;;;5.93;;
71800;SDS011;59647;55.838;37.292;2024-01-30T03:39:07;12.37;;;5.87;;
71800;SDS011;59647;55.838;37.292;2024-01-30T03:41:33;11.00;;;5.40;;
71800;SDS011;59647;55.838;37.292;2024-01-30T03:43:59;8.93;;;4.70;;
71800;SDS011;59647;55.838;37.292;2024-01-30T03:46:24;12.00;;;5.57;;
71800;SDS011;59647;55.838;37.292;2024-01-30T03:48:50;10.40;;;4.77;;
71800;SDS011;59647;55.838;37.292;2024-01-30T03:51:16;13.47;;;6.57;;
71800;SDS011;59647;55.838;37.292;2024-01-30T03:53:42;10.30;;;5.37;;
71800;SDS011;59647;55.838;37.292;2024-01-30T03:56:08;10.13;;;5.10;;
71800;SDS011;59647;55.838;37.292;2024-01-30T03:58:34;10.47;;;5.47;;
71800;SDS011;59647;55.838;37.292;2024-01-30T04:01:00;12.67;;;5.83;;
71800;SDS011;59647;55.838;37.292;2024-01-30T04:03:25;11.10;;;6.00;;
71800;SDS011;59647;55.838;37.292;2024-01-30T04:05:51;13.63;;;5.67;;
71800;SDS011;59647;55.838;37.292;2024-01-30T04:08:17;19.20;;;6.17;;
71800;SDS011;59647;55.838;37.292;2024-01-30T04:10:43;9.47;;;4.90;;
71800;SDS011;59647;55.838;37.292;2024-01-30T04:13:08;12.90;;;5.87;;
71800;SDS011;59647;55.838;37.292;2024-01-30T04:15:34;10.07;;;5.80;;
71800;SDS011;59647;55.838;37.292;2024-01-30T04:18:00;12.67;;;5.30;;
71800;SDS011;59647;55.838;37.292;2024-01-30T04:20:26;9.73;;;5.70;;
71800;SDS011;59647;55.838;37.292;2024-01-30T04:22:51;11.60;;;6.43;;
71800;SDS011;59647;55.838;37.292;2024-01-30T04:25:17;12.67;;;5.67;;
71800;SDS011;59647;55.838;37.292;2024-01-30T04:27:44;10.60;;;5.47;;
71800;SDS011;59647;55.838;37.292;2024-01-30T04:30:10;13.07;;;6.00;;
71800;SDS011;59647;55.838;37.292;2024-01-30T04:32:36;16.70;;;5.17;;
71800;SDS011;59647;55.838;37.292;2024-01-30T04:35:02;11.07;;;6.10;;
71800;SDS011;59647;55.838;37.292;2024-01-30T04:37:30;10.33;;;5.17;;
71800;SDS011;59647;55.838;37.292;2024-01-30T04:39:56;12.93;;;5.97;;
71800;SDS011;59647;55.838;37.292;2024-01-30T04:42:21;11.47;;;6.10;;
71800;SDS011;59647;55.838;37.292;2024-01-30T04:44:47;11.10;;;4.20;;
71800;SDS011;59647;55.838;37.292;2024-01-30T04:47:13;12.83;;;5.80;;
71800;SDS011;59647;55.838;37.292;2024-01-30T04:49:39;11.57;;;6.30;;
71800;SDS011;59647;55.838;37.292;2024-01-30T04:52:08;12.95;;;6.28;;
71800;SDS011;59647;55.838;37.292;2024-01-30T04:54:34;10.82;;;6.40;;
71800;SDS011;59647;55.838;37.292;2024-01-30T04:57:00;17.10;;;7.18;;
71800;SDS011;59647;55.838;37.292;2024-01-30T04:59:25;10.57;;;5.70;;
71800;SDS011;59647;55.838;37.292;2024-01-30T05:01:51;14.87;;;7.13;;
71800;SDS011;59647;55.838;37.292;2024-01-30T05:04:17;10.10;;;6.10;;
71800;SDS011;59647;55.838;37.292;2024-01-30T05:06:43;12.77;;;6.83;;
71800;SDS011;59647;55.838;37.292;2024-01-30T05:09:08;15.75;;;7.15;;
71800;SDS011;59647;55.838;37.292;2024-01-30T05:11:38;17.40;;;6.50;;
71800;SDS011;59647;55.838;37.292;2024-01-30T05:14:04;13.75;;;5.50;;
71800;SDS011;59647;55.838;37.292;2024-01-30T05:16:31;11.20;;;5.55;;
71800;SDS011;59647;55.838;37.292;2024-01-30T05:18:57;13.25;;;5.82;;
71800;SDS011;59647;55.838;37.292;2024-01-30T05:21:23;14.93;;;6.57;;
71800;SDS011;59647;55.838;37.292;2024-01-30T05:23:48;10.43;;;5.93;;
71800;SDS011;59647;55.838;37.292;2024-01-30T05:26:14;11.33;;;5.83;;
71800;SDS011;59647;55.838;37.292;2024-01-30T05:28:40;15.10;;;6.83;;
71800;SDS011;59647;55.838;37.292;2024-01-30T05:31:05;11.87;;;5.80;;
71800;SDS011;59647;55.838;37.292;2024-01-30T05:33:31;12.90;;;5.75;;
71800;SDS011;59647;55.838;37.292;2024-01-30T05:35:57;12.20;;;6.70;;
71800;SDS011;59647;55.838;37.292;2024-01-30T05:38:23;11.40;;;6.47;;
71800;SDS011;59647;55.838;37.292;2024-01-30T05:40:48;25.07;;;6.27;;
71800;SDS011;59647;55.838;37.292;2024-01-30T05:43:14;16.08;;;7.03;;
71800;SDS011;59647;55.838;37.292;2024-01-30T05:45:40;14.50;;;6.33;;
71800;SDS011;59647;55.838;37.292;2024-01-30T05:48:05;13.27;;;6.47;;
71800;SDS011;59647;55.838;37.292;2024-01-30T05:50:31;14.68;;;7.03;;
71800;SDS011;59647;55.838;37.292;2024-01-30T05:52:57;15.70;;;6.40;;
71800;SDS011;59647;55.838;37.292;2024-01-30T05:55:22;17.17;;;6.60;;
71800;SDS011;59647;55.838;37.292;2024-01-30T05:57:48;13.32;;;7.15;;
71800;SDS011;59647;55.838;37.292;2024-01-30T06:00:14;12.48;;;7.10;;
71800;SDS011;59647;55.838;37.292;2024-01-30T06:02:40;13.35;;;6.10;;
71800;SDS011;59647;55.838;37.292;2024-01-30T06:05:05;11.65;;;6.03;;
71800;SDS011;59647;55.838;37.292;2024-01-30T06:07:31;15.50;;;6.47;;
71800;SDS011;59647;55.838;37.292;2024-01-30T06:09:57;14.23;;;6.55;;
71800;SDS011;59647;55.838;37.292;2024-01-30T06:12:23;20.03;;;7.40;;
71800;SDS011;59647;55.838;37.292;2024-01-30T06:14:48;15.60;;;7.27;;
71800;SDS011;59647;55.838;37.292;2024-01-30T06:17:14;14.05;;;6.45;;
71800;SDS011;59647;55.838;37.292;2024-01-30T06:19:40;19.90;;;7.82;;
71800;SDS011;59647;55.838;37.292;2024-01-30T06:22:06;10.13;;;5.37;;
71800;SDS011;59647;55.838;37.292;2024-01-30T06:24:32;15.15;;;7.13;;
71800;SDS011;59647;55.838;37.292;2024-01-30T06:26:59;13.35;;;5.95;;
71800;SDS011;59647;55.838;37.292;2024-01-30T06:29:24;17.73;;;5.67;;
71800;SDS011;59647;55.838;37.292;2024-01-30T06:31:52;16.93;;;6.03;;
71800;SDS011;59647;55.838;37.292;2024-01-30T06:34:18;12.40;;;6.07;;
71800;SDS011;59647;55.838;37.292;2024-01-30T06:36:43;14.73;;;6.10;;
71800;SDS011;59647;55.838;37.292;2024-01-30T06:39:09;15.40;;;6.65;;
71800;SDS011;59647;55.838;37.292;2024-01-30T06:41:35;12.45;;;6.55;;
71800;SDS011;59647;55.838;37.292;2024-01-30T06:44:03;16.60;;;6.15;;
71800;SDS011;59647;55.838;37.292;2024-01-30T06:46:33;18.23;;;6.72;;
71800;SDS011;59647;55.838;37.292;2024-01-30T06:48:59;13.32;;;6.68;;
71800;SDS011;59647;55.838;37.292;2024-01-30T06:51:25;18.17;;;7.20;;
71800;SDS011;59647;55.838;37.292;2024-01-30T06:53:51;17.80;;;7.18;;
71800;SDS011;59647;55.838;37.292;2024-01-30T06:56:16;15.95;;;8.07;;
71800;SDS011;59647;55.838;37.292;2024-01-30T06:58:49;18.08;;;7.80;;
71800;SDS011;59647;55.838;37.292;2024-01-30T07:01:15;19.83;;;8.45;;
71800;SDS011;59647;55.838;37.292;2024-01-30T07:03:41;16.27;;;7.10;;
71800;SDS011;59647;55.838;37.292;2024-01-30T07:06:07;17.07;;;6.63;;
71800;SDS011;59647;55.838;37.292;2024-01-30T07:08:33;15.13;;;7.05;;
71800;SDS011;59647;55.838;37.292;2024-01-30T07:10:59;15.57;;;7.93;;
71800;SDS011;59647;55.838;37.292;2024-01-30T07:13:24;15.45;;;7.63;;
71800;SDS011;59647;55.838;37.292;2024-01-30T07:15:50;27.08;;;7.43;;
71800;SDS011;59647;55.838;37.292;2024-01-30T07:18:16;22.33;;;8.90;;
71800;SDS011;59647;55.838;37.292;2024-01-30T07:20:42;17.17;;;7.07;;
71800;SDS011;59647;55.838;37.292;2024-01-30T07:23:15;20.10;;;6.97;;
71800;SDS011;59647;55.838;37.292;2024-01-30T07:25:43;19.60;;;6.83;;
71800;SDS011;59647;55.838;37.292;2024-01-30T07:28:09;22.08;;;7.45;;
71800;SDS011;59647;55.838;37.292;2024-01-30T07:30:39;19.98;;;6.75;;
71800;SDS011;59647;55.838;37.292;2024-01-30T07:33:04;19.02;;;6.68;;
71800;SDS011;59647;55.838;37.292;2024-01-30T07:35:30;13.90;;;6.15;;
71800;SDS011;59647;55.838;37.292;2024-01-30T07:37:56;18.33;;;6.78;;
71800;SDS011;59647;55.838;37.292;2024-01-30T07:40:22;15.48;;;6.85;;
71800;SDS011;59647;55.838;37.292;2024-01-30T07:42:49;18.77;;;6.43;;
71800;SDS011;59647;55.838;37.292;2024-01-30T07:45:15;20.27;;;6.68;;
71800;SDS011;59647;55.838;37.292;2024-01-30T07:47:40;17.05;;;7.15;;
71800;SDS011;59647;55.838;37.292;2024-01-30T07:50:08;17.50;;;6.63;;
71800;SDS011;59647;55.838;37.292;2024-01-30T07:52:34;14.95;;;6.07;;
71800;SDS011;59647;55.838;37.292;2024-01-30T07:55:16;16.00;;;7.38;;
71800;SDS011;59647;55.838;37.292;2024-01-30T07:58:03;15.23;;;6.60;;
71800;SDS011;59647;55.838;37.292;2024-01-30T08:00:30;14.80;;;7.60;;
71800;SDS011;59647;55.838;37.292;2024-01-30T08:02:55;14.10;;;6.32;;
71800;SDS011;59647;55.838;37.292;2024-01-30T08:05:22;16.98;;;6.85;;
71800;SDS011;59647;55.838;37.292;2024-01-30T08:07:48;19.90;;;7.00;;
71800;SDS011;59647;55.838;37.292;2024-01-30T08:10:14;20.02;;;7.45;;
71800;SDS011;59647;55.838;37.292;2024-01-30T08:12:40;16.83;;;6.80;;
71800;SDS011;59647;55.838;37.292;2024-01-30T08:15:06;15.00;;;6.35;;
71800;SDS011;59647;55.838;37.292;2024-01-30T08:17:33;19.88;;;7.05;;
71800;SDS011;59647;55.838;37.292;2024-01-30T08:19:58;15.18;;;7.68;;
71800;SDS011;59647;55.838;37.292;2024-01-30T08:22:24;14.00;;;6.72;;
71800;SDS011;59647;55.838;37.292;2024-01-30T08:24:50;17.42;;;7.50;;
71800;SDS011;59647;55.838;37.292;2024-01-30T08:27:16;19.02;;;6.88;;
71800;SDS011;59647;55.838;37.292;2024-01-30T08:29:41;15.13;;;6.75;;
71800;SDS011;59647;55.838;37.292;2024-01-30T08:32:07;14.48;;;6.53;;
71800;SDS011;59647;55.838;37.292;2024-01-30T08:34:33;12.15;;;5.88;;
71800;SDS011;59647;55.838;37.292;2024-01-30T08:36:59;17.30;;;8.02;;
71800;SDS011;59647;55.838;37.292;2024-01-30T08:39:25;16.77;;;6.90;;
71800;SDS011;59647;55.838;37.292;2024-01-30T08:41:50;20.08;;;7.95;;
71800;SDS011;59647;55.838;37.292;2024-01-30T08:44:16;17.00;;;7.32;;
71800;SDS011;59647;55.838;37.292;2024-01-30T08:46:43;14.35;;;6.45;;
71800;SDS011;59647;55.838;37.292;2024-01-30T08:49:10;19.90;;;6.78;;
71800;SDS011;59647;55.838;37.292;2024-01-30T08:51:36;16.42;;;6.68;;
71800;SDS011;59647;55.838;37.292;2024-01-30T08:54:02;14.13;;;7.32;;
71800;SDS011;59647;55.838;37.292;2024-01-30T08:56:28;20.38;;;8.20;;
71800;SDS011;59647;55.838;37.292;2024-01-30T08:58:54;12.75;;;5.90;;
71800;SDS011;59647;55.838;37.292;2024-01-30T09:01:19;15.38;;;7.05;;
71800;SDS011;59647;55.838;37.292;2024-01-30T09:03:45;26.98;;;10.40;;
71800;SDS011;59647;55.838;37.292;2024-01-30T09:06:12;21.95;;;8.57;;
71800;SDS011;59647;55.838;37.292;2024-01-30T09:08:38;15.65;;;6.78;;
71800;SDS011;59647;55.838;37.292;2024-01-30T09:11:13;16.52;;;6.75;;
71800;SDS011;59647;55.838;37.292;2024-01-30T09:13:39;21.58;;;8.95;;
71800;SDS011;59647;55.838;37.292;2024-01-30T09:16:05;13.32;;;5.35;;
71800;SDS011;59647;55.838;37.292;2024-01-30T09:18:30;13.95;;;5.95;;
71800;SDS011;59647;55.838;37.292;2024-01-30T09:20:56;17.23;;;6.72;;
71800;SDS011;59647;55.838;37.292;2024-01-30T09:23:22;10.95;;;5.65;;
71800;SDS011;59647;55.838;37.292;2024-01-30T09:25:48;15.63;;;6.32;;
71800;SDS011;59647;55.838;37.292;2024-01-30T09:28:13;14.82;;;6.25;;
71800;SDS011;59647;55.838;37.292;2024-01-30T09:30:39;14.15;;;6.22;;
71800;SDS011;59647;55.838;37.292;2024-01-30T09:33:06;16.95;;;6.65;;
71800;SDS011;59647;55.838;37.292;2024-01-30T09:35:31;15.13;;;7.03;;
71800;SDS011;59647;55.838;37.292;2024-01-30T09:37:57;12.85;;;5.60;;
71800;SDS011;59647;55.838;37.292;2024-01-30T09:40:23;13.75;;;6.22;;
71800;SDS011;59647;55.838;37.292;2024-01-30T09:42:52;15.05;;;6.63;;
71800;SDS011;59647;55.838;37.292;2024-01-30T09:45:19;17.80;;;7.45;;
71800;SDS011;59647;55.838;37.292;2024-01-30T09:47:45;13.25;;;5.85;;
71800;SDS011;59647;55.838;37.292;2024-01-30T09:50:12;19.88;;;6.75;;
71800;SDS011;59647;55.838;37.292;2024-01-30T09:52:38;12.93;;;5.05;;
71800;SDS011;59647;55.838;37.292;2024-01-30T09:55:04;14.25;;;6.03;;
71800;SDS011;59647;55.838;37.292;2024-01-30T09:57:31;15.55;;;7.05;;
71800;SDS011;59647;55.838;37.292;2024-01-30T09:59:56;13.18;;;5.93;;
71800;SDS011;59647;55.838;37.292;2024-01-30T10:02:22;11.65;;;5.90;;
71800;SDS011;59647;55.838;37.292;2024-01-30T10:04:49;16.95;;;7.57;;
71800;SDS011;59647;55.838;37.292;2024-01-30T10:07:15;14.32;;;6.32;;
71800;SDS011;59647;55.838;37.292;2024-01-30T10:09:41;15.55;;;7.45;;
71800;SDS011;59647;55.838;37.292;2024-01-30T10:12:07;13.18;;;6.20;;
71800;SDS011;59647;55.838;37.292;2024-01-30T10:14:33;11.63;;;6.15;;
71800;SDS011;59647;55.838;37.292;2024-01-30T10:17:01;13.73;;;5.95;;
71800;SDS011;59647;55.838;37.292;2024-01-30T10:19:26;12.20;;;6.43;;
71800;SDS011;59647;55.838;37.292;2024-01-30T10:21:52;11.55;;;5.97;;
71800;SDS011;59647;55.838;37.292;2024-01-30T10:24:18;13.63;;;5.55;;
71800;SDS011;59647;55.838;37.292;2024-01-30T10:26:44;14.88;;;7.07;;
71800;SDS011;59647;55.838;37.292;2024-01-30T10:29:09;15.38;;;6.95;;
71800;SDS011;59647;55.838;37.292;2024-01-30T10:31:35;15.43;;;6.13;;
71800;SDS011;59647;55.838;37.292;2024-01-30T10:34:01;13.77;;;5.93;;
71800;SDS011;59647;55.838;37.292;2024-01-30T10:36:28;13.63;;;5.80;;
71800;SDS011;59647;55.838;37.292;2024-01-30T10:38:54;19.10;;;6.53;;
71800;SDS011;59647;55.838;37.292;2024-01-30T10:41:23;15.23;;;6.47;;
71800;SDS011;59647;55.838;37.292;2024-01-30T10:43:55;13.55;;;7.20;;
71800;SDS011;59647;55.838;37.292;2024-01-30T10:46:24;14.98;;;6.28;;
71800;SDS011;59647;55.838;37.292;2024-01-30T10:48:58;13.85;;;5.88;;
71800;SDS011;59647;55.838;37.292;2024-01-30T10:51:27;12.73;;;6.50;;
71800;SDS011;59647;55.838;37.292;2024-01-30T10:53:53;16.75;;;6.07;;
71800;SDS011;59647;55.838;37.292;2024-01-30T10:56:20;16.90;;;6.97;;
71800;SDS011;59647;55.838;37.292;2024-01-30T10:58:46;12.38;;;5.43;;
71800;SDS011;59647;55.838;37.292;2024-01-30T11:01:12;16.40;;;6.03;;
71800;SDS011;59647;55.838;37.292;2024-01-30T11:03:38;11.02;;;5.30;;
71800;SDS011;59647;55.838;37.292;2024-01-30T11:06:04;11.55;;;5.47;;
71800;SDS011;59647;55.838;37.292;2024-01-30T11:08:31;18.23;;;6.20;;
71800;SDS011;59647;55.838;37.292;2024-01-30T11:10:57;11.35;;;5.88;;
71800;SDS011;59647;55.838;37.292;2024-01-30T11:13:27;11.82;;;5.45;;
71800;SDS011;59647;55.838;37.292;2024-01-30T11:15:54;16.30;;;6.15;;
71800;SDS011;59647;55.838;37.292;2024-01-30T11:18:23;16.20;;;5.95;;
71800;SDS011;59647;55.838;37.292;2024-01-30T11:20:49;11.30;;;6.03;;
71800;SDS011;59647;55.838;37.292;2024-01-30T11:23:15;13.90;;;5.82;;
71800;SDS011;59647;55.838;37.292;2024-01-30T11:25:43;12.55;;;5.95;;
71800;SDS011;59647;55.838;37.292;2024-01-30T11:28:13;12.65;;;5.65;;
71800;SDS011;59647;55.838;37.292;2024-01-30T11:30:38;13.93;;;5.38;;
71800;SDS011;59647;55.838;37.292;2024-01-30T11:33:13;13.30;;;6.03;;
71800;SDS011;59647;55.838;37.292;2024-01-30T11:35:43;17.40;;;6.22;;
71800;SDS011;59647;55.838;37.292;2024-01-30T11:38:13;12.07;;;5.40;;
71800;SDS011;59647;55.838;37.292;2024-01-30T11:40:39;11.55;;;5.93;;
71800;SDS011;59647;55.838;37.292;2024-01-30T11:43:06;14.13;;;6.68;;
71800;SDS011;59647;55.838;37.292;2024-01-30T11:45:32;18.23;;;6.43;;
71800;SDS011;59647;55.838;37.292;2024-01-30T11:47:58;15.60;;;5.68;;
71800;SDS011;59647;55.838;37.292;2024-01-30T11:50:30;14.98;;;6.30;;
71800;SDS011;59647;55.838;37.292;2024-01-30T11:52:55;14.02;;;5.65;;
71800;SDS011;59647;55.838;37.292;2024-01-30T11:55:23;14.88;;;5.45;;
71800;SDS011;59647;55.838;37.292;2024-01-30T11:57:49;13.18;;;6.20;;
71800;SDS011;59647;55.838;37.292;2024-01-30T12:00:15;12.00;;;5.43;;
71800;SDS011;59647;55.838;37.292;2024-01-30T12:02:42;14.13;;;6.38;;
71800;SDS011;59647;55.838;37.292;2024-01-30T12:05:08;12.40;;;5.55;;
71800;SDS011;59647;55.838;37.292;2024-01-30T12:07:34;14.82;;;6.60;;
71800;SDS011;59647;55.838;37.292;2024-01-30T12:10:00;13.82;;;6.05;;
71800;SDS011;59647;55.838;37.292;2024-01-30T12:12:27;15.07;;;6.55;;
71800;SDS011;59647;55.838;37.292;2024-01-30T12:14:53;16.27;;;6.75;;
71800;SDS011;59647;55.838;37.292;2024-01-30T12:19:51;14.55;;;5.93;;
71800;SDS011;59647;55.838;37.292;2024-01-30T12:22:16;15.15;;;6.20;;
71800;SDS011;59647;55.838;37.292;2024-01-30T12:24:42;13.43;;;5.90;;
71800;SDS011;59647;55.838;37.292;2024-01-30T12:27:08;16.48;;;5.72;;
71800;SDS011;59647;55.838;37.292;2024-01-30T12:29:33;17.73;;;6.65;;
71800;SDS011;59647;55.838;37.292;2024-01-30T12:31:59;15.30;;;7.72;;
71800;SDS011;59647;55.838;37.292;2024-01-30T12:34:25;17.92;;;7.30;;
71800;SDS011;59647;55.838;37.292;2024-01-30T12:36:51;25.40;;;9.68;;
71800;SDS011;59647;55.838;37.292;2024-01-30T12:39:17;20.83;;;7.22;;
71800;SDS011;59647;55.838;37.292;2024-01-30T12:41:43;18.77;;;7.03;;
71800;SDS011;59647;55.838;37.292;2024-01-30T12:44:08;15.50;;;7.90;;
71800;SDS011;59647;55.838;37.292;2024-01-30T12:46:34;13.52;;;5.95;;
71800;SDS011;59647;55.838;37.292;2024-01-30T12:49:00;15.38;;;6.25;;
71800;SDS011;59647;55.838;37.292;2024-01-30T12:51:26;15.80;;;6.10;;
71800;SDS011;59647;55.838;37.292;2024-01-30T12:53:52;16.75;;;7.35;;
71800;SDS011;59647;55.838;37.292;2024-01-30T12:56:17;14.38;;;6.75;;
71800;SDS011;59647;55.838;37.292;2024-01-30T12:58:43;19.33;;;6.93;;
71800;SDS011;59647;55.838;37.292;2024-01-30T13:01:09;14.32;;;6.55;;
71800;SDS011;59647;55.838;37.292;2024-01-30T13:03:35;14.52;;;6.05;;
71800;SDS011;59647;55.838;37.292;2024-01-30T13:06:01;17.55;;;7.63;;
71800;SDS011;59647;55.838;37.292;2024-01-30T13:08:26;14.80;;;7.10;;
71800;SDS011;59647;55.838;37.292;2024-01-30T13:10:52;14.20;;;7.03;;
71800;SDS011;59647;55.838;37.292;2024-01-30T13:13:18;19.00;;;7.38;;
71800;SDS011;59647;55.838;37.292;2024-01-30T13:15:44;23.52;;;8.80;;
71800;SDS011;59647;55.838;37.292;2024-01-30T13:18:09;19.15;;;7.18;;
71800;SDS011;59647;55.838;37.292;2024-01-30T13:20:35;17.85;;;6.75;;
71800;SDS011;59647;55.838;37.292;2024-01-30T13:23:01;13.18;;;6.28;;
71800;SDS011;59647;55.838;37.292;2024-01-30T13:25:27;13.98;;;6.30;;
71800;SDS011;59647;55.838;37.292;2024-01-30T13:27:52;18.38;;;6.93;;
71800;SDS011;59647;55.838;37.292;2024-01-30T13:30:18;16.92;;;7.07;;
71800;SDS011;59647;55.838;37.292;2024-01-30T13:32:44;19.63;;;8.07;;
71800;SDS011;59647;55.838;37.292;2024-01-30T13:35:10;19.65;;;8.25;;
71800;SDS011;59647;55.838;37.292;2024-01-30T13:37:36;12.80;;;7.60;;
71800;SDS011;59647;55.838;37.292;2024-01-30T13:40:05;19.17;;;6.93;;
71800;SDS011;59647;55.838;37.292;2024-01-30T13:42:32;16.95;;;7.10;;
71800;SDS011;59647;55.838;37.292;2024-01-30T13:44:58;21.00;;;7.18;;
71800;SDS011;59647;55.838;37.292;2024-01-30T13:47:24;15.10;;;6.80;;
71800;SDS011;59647;55.838;37.292;2024-01-30T13:49:50;15.50;;;6.72;;
71800;SDS011;59647;55.838;37.292;2024-01-30T13:52:18;24.25;;;7.30;;
71800;SDS011;59647;55.838;37.292;2024-01-30T13:54:43;17.80;;;7.55;;
71800;SDS011;59647;55.838;37.292;2024-01-30T13:57:09;21.20;;;8.68;;
71800;SDS011;59647;55.838;37.292;2024-01-30T13:59:35;21.38;;;8.38;;
71800;SDS011;59647;55.838;37.292;2024-01-30T14:02:01;18.05;;;8.20;;
71800;SDS011;59647;55.838;37.292;2024-01-30T14:04:27;21.85;;;8.50;;
71800;SDS011;59647;55.838;37.292;2024-01-30T14:06:52;20.73;;;7.80;;
71800;SDS011;59647;55.838;37.292;2024-01-30T14:09:18;20.80;;;7.93;;
71800;SDS011;59647;55.838;37.292;2024-01-30T14:11:43;20.70;;;7.28;;
71800;SDS011;59647;55.838;37.292;2024-01-30T14:14:09;18.77;;;7.57;;
71800;SDS011;59647;55.838;37.292;2024-01-30T14:16:35;23.98;;;8.23;;
71800;SDS011;59647;55.838;37.292;2024-01-30T14:19:01;23.15;;;9.38;;
71800;SDS011;59647;55.838;37.292;2024-01-30T14:21:27;24.35;;;8.63;;